Time;durP1;ratioP1;P1;durP2;ratioP2;P2;SDS_P1;SDS_P2;PMS_P1;PMS_P2;Temp;Humidity;BMP_temperature;BMP_pressure;BME280_temperature;BME280_humidity;BME280_pressure;Samples;Min_cycle;Max_cycle;Signal;HPM_P1;HPM_P2
2023/12/03 00:02:15;;;;;;;10.55;6.80;;;0.00;69.20;;;;;;5026540;28;20103;-62
2023/12/03 00:04:43;;;;;;;10.98;6.70;;;0.00;69.10;;;;;;5031182;28;20376;-60
2023/12/03 00:07:09;;;;;;;11.48;7.07;;;0.20;69.20;;;;;;5022872;28;20025;-62
2023/12/03 00:09:36;;;;;;;13.85;8.02;;;0.10;69.00;;;;;;5042186;28;20075;-62
2023/12/03 00:12:04;;;;;;;12.05;7.88;;;0.10;68.90;;;;;;5026144;28;21340;-60
2023/12/03 00:14:29;;;;;;;12.07;7.68;;;0.00;68.90;;;;;;5026881;28;20036;-61
2023/12/03 00:16:55;;;;;;;11.57;7.63;;;0.20;69.10;;;;;;5027508;28;20033;-60
2023/12/03 00:19:21;;;;;;;12.38;7.55;;;0.00;69.00;;;;;;5023583;28;20037;-61
2023/12/03 00:21:46;;;;;;;12.68;7.68;;;0.00;68.90;;;;;;5025515;28;20049;-60
2023/12/03 00:24:12;;;;;;;14.10;8.27;;;0.00;68.90;;;;;;5021713;28;20499;-61
2023/12/03 00:26:38;;;;;;;9.65;6.65;;;0.00;68.90;;;;;;5026385;28;20018;-60
2023/12/03 00:29:03;;;;;;;10.75;7.07;;;0.00;68.90;;;;;;5026285;28;20077;-60
2023/12/03 00:31:29;;;;;;;13.30;7.72;;;0.00;69.00;;;;;;5027560;28;20056;-61
2023/12/03 00:33:54;;;;;;;13.32;7.60;;;0.00;69.10;;;;;;5026569;28;20033;-61
2023/12/03 00:36:20;;;;;;;12.30;7.40;;;0.00;69.10;;;;;;5026771;28;21073;-61
2023/12/03 00:38:45;;;;;;;10.27;7.38;;;0.00;69.10;;;;;;5023970;28;20025;-62
2023/12/03 00:41:11;;;;;;;11.20;7.07;;;0.00;69.20;;;;;;5026658;28;20061;-60
2023/12/03 00:43:37;;;;;;;13.93;8.20;;;0.00;69.10;;;;;;5026175;28;20827;-61
2023/12/03 00:46:02;;;;;;;13.18;7.57;;;0.00;69.00;;;;;;5025797;28;20025;-61
2023/12/03 00:48:28;;;;;;;11.77;7.55;;;-0.10;68.90;;;;;;5028874;28;20113;-62
2023/12/03 00:50:54;;;;;;;13.63;7.60;;;0.00;68.90;;;;;;5042805;28;20025;-61
2023/12/03 00:53:19;;;;;;;12.07;7.88;;;-0.10;69.00;;;;;;5037957;28;21423;-61
2023/12/03 00:55:45;;;;;;;12.70;7.57;;;-0.10;69.00;;;;;;5037748;28;20033;-60
2023/12/03 00:58:11;;;;;;;14.32;8.43;;;-0.10;69.00;;;;;;5028157;28;20033;-62
2023/12/03 01:00:36;;;;;;;16.98;8.70;;;-0.10;69.10;;;;;;5025793;28;20025;-61
2023/12/03 01:03:02;;;;;;;18.23;8.75;;;-0.10;69.10;;;;;;5026234;28;20030;-62
2023/12/03 01:05:28;;;;;;;13.77;8.15;;;0.10;69.20;;;;;;5027103;28;20573;-61
2023/12/03 01:07:54;;;;;;;14.27;8.18;;;0.00;69.20;;;;;;5023361;28;20100;-62
2023/12/03 01:10:20;;;;;;;13.70;8.52;;;0.00;69.20;;;;;;5025949;28;20060;-61
2023/12/03 01:12:45;;;;;;;12.82;7.65;;;0.00;69.20;;;;;;5026041;28;20036;-61
2023/12/03 01:15:11;;;;;;;11.65;7.65;;;0.00;69.20;;;;;;5025016;28;20033;-62
2023/12/03 01:17:36;;;;;;;13.38;7.88;;;0.00;69.10;;;;;;5025163;28;20029;-62
2023/12/03 01:20:02;;;;;;;14.60;7.85;;;0.00;69.20;;;;;;5025719;28;20028;-61
2023/12/03 01:22:28;;;;;;;13.63;8.05;;;-0.10;69.20;;;;;;5023495;28;20037;-60
2023/12/03 01:24:54;;;;;;;12.38;7.85;;;0.20;69.50;;;;;;5026770;28;20115;-60
2023/12/03 01:27:19;;;;;;;13.77;7.88;;;-0.10;69.30;;;;;;5026760;28;20030;-60
2023/12/03 01:29:45;;;;;;;13.77;8.38;;;0.20;69.50;;;;;;5026486;28;20124;-62
2023/12/03 01:32:10;;;;;;;15.85;8.95;;;0.00;69.40;;;;;;5024982;28;20472;-61
2023/12/03 01:34:36;;;;;;;16.70;8.73;;;0.00;69.30;;;;;;5024778;28;20136;-61
2023/12/03 01:37:02;;;;;;;19.60;9.77;;;0.00;69.40;;;;;;5025736;28;20032;-62
2023/12/03 01:39:27;;;;;;;16.92;8.93;;;0.00;69.50;;;;;;5025607;28;20079;-61
2023/12/03 01:41:54;;;;;;;16.48;9.93;;;0.00;69.30;;;;;;5024390;28;20073;-61
2023/12/03 01:44:20;;;;;;;14.38;8.75;;;0.00;69.30;;;;;;5024306;28;20037;-61
2023/12/03 01:46:49;;;;;;;14.13;9.00;;;0.10;69.40;;;;;;4973456;28;20088;-61
2023/12/03 01:49:19;;;;;;;17.20;9.73;;;0.00;69.30;;;;;;5025677;28;20029;-61
2023/12/03 01:51:46;;;;;;;15.80;9.18;;;0.00;69.30;;;;;;5029216;28;20159;-60
2023/12/03 01:54:12;;;;;;;14.10;8.95;;;0.00;69.30;;;;;;5023796;28;20083;-60
2023/12/03 01:56:38;;;;;;;14.95;8.75;;;0.00;69.10;;;;;;5024231;28;20026;-61
2023/12/03 01:59:04;;;;;;;15.55;9.23;;;0.00;69.10;;;;;;5025465;28;20037;-61
2023/12/03 02:01:29;;;;;;;16.00;9.00;;;0.00;69.20;;;;;;5023402;28;20041;-62
2023/12/03 02:03:55;;;;;;;13.35;8.18;;;0.00;69.30;;;;;;5025328;28;20416;-62
2023/12/03 02:06:21;;;;;;;17.00;9.02;;;0.00;69.30;;;;;;5024932;28;20129;-62
2023/12/03 02:08:46;;;;;;;13.68;8.30;;;0.00;69.30;;;;;;5024543;28;20035;-61
2023/12/03 02:11:12;;;;;;;12.98;8.32;;;0.00;69.30;;;;;;5024978;28;20025;-61
2023/12/03 02:13:39;;;;;;;13.10;8.23;;;0.10;69.30;;;;;;5024499;28;20322;-60
2023/12/03 02:16:05;;;;;;;15.10;8.15;;;0.00;69.30;;;;;;5024827;28;20159;-61
2023/12/03 02:18:34;;;;;;;11.23;7.95;;;0.00;69.20;;;;;;5024632;28;20668;-62
2023/12/03 02:21:00;;;;;;;13.82;8.77;;;0.00;69.30;;;;;;5024901;28;20033;-63
2023/12/03 02:23:30;;;;;;;17.05;8.48;;;-0.10;69.20;;;;;;5022989;28;20091;-61
2023/12/03 02:25:55;;;;;;;13.45;8.55;;;-0.10;69.30;;;;;;5023874;28;20017;-61
2023/12/03 02:28:21;;;;;;;14.32;9.45;;;-0.10;69.30;;;;;;5022550;28;20546;-61
2023/12/03 02:30:46;;;;;;;15.35;9.32;;;-0.10;69.30;;;;;;5023844;28;20032;-61
2023/12/03 02:33:12;;;;;;;15.40;9.85;;;-0.10;69.40;;;;;;5027965;28;20382;-61
2023/12/03 02:35:38;;;;;;;15.23;9.60;;;-0.10;69.40;;;;;;5045311;28;20052;-61
2023/12/03 02:38:03;;;;;;;19.25;9.73;;;-0.10;69.40;;;;;;5028192;28;20025;-60
2023/12/03 02:40:34;;;;;;;16.55;10.00;;;-0.10;69.60;;;;;;5026852;28;20120;-61
2023/12/03 02:43:00;;;;;;;16.20;9.43;;;-0.20;69.50;;;;;;5040083;28;20502;-61
2023/12/03 02:45:29;;;;;;;17.00;9.43;;;-0.20;69.50;;;;;;4979348;28;20833;-61
2023/12/03 02:47:54;;;;;;;15.98;10.13;;;-0.20;69.40;;;;;;5026703;28;20033;-61
2023/12/03 02:50:20;;;;;;;16.63;9.20;;;-0.20;69.40;;;;;;5039350;28;20151;-62
2023/12/03 02:52:46;;;;;;;14.07;9.13;;;-0.20;70.10;;;;;;5028048;28;20033;-61
2023/12/03 02:55:11;;;;;;;14.45;9.25;;;-0.20;69.40;;;;;;5028805;28;20037;-61
2023/12/03 02:57:37;;;;;;;14.25;9.13;;;-0.20;69.40;;;;;;5027435;28;20032;-61
2023/12/03 03:00:04;;;;;;;16.55;9.50;;;-0.10;69.40;;;;;;5027921;28;20371;-61
2023/12/03 03:02:32;;;;;;;16.05;9.73;;;-0.20;69.30;;;;;;5028435;28;20091;-61
2023/12/03 03:04:57;;;;;;;14.60;10.02;;;-0.20;69.30;;;;;;5028148;28;20132;-62
2023/12/03 03:07:23;;;;;;;14.20;9.10;;;-0.30;69.40;;;;;;5027959;28;20130;-60
2023/12/03 03:09:48;;;;;;;17.33;10.38;;;-0.30;69.40;;;;;;5027980;28;20025;-61
2023/12/03 03:12:14;;;;;;;16.05;10.13;;;-0.30;69.40;;;;;;5029444;28;20048;-61
2023/12/03 03:14:40;;;;;;;16.02;9.75;;;-0.30;69.40;;;;;;5039912;28;20022;-61
2023/12/03 03:17:05;;;;;;;17.00;10.48;;;-0.40;69.40;;;;;;5036652;28;20029;-61
2023/12/03 03:19:31;;;;;;;18.38;10.25;;;-0.40;69.50;;;;;;5035739;28;20416;-61
2023/12/03 03:21:57;;;;;;;16.60;9.52;;;-0.40;69.50;;;;;;5035811;28;20033;-61
2023/12/03 03:24:22;;;;;;;17.05;9.45;;;-0.40;69.50;;;;;;5026833;28;20071;-62
2023/12/03 03:26:48;;;;;;;15.38;9.05;;;-0.40;69.50;;;;;;5032571;28;20029;-61
2023/12/03 03:29:13;;;;;;;22.40;10.48;;;-0.50;69.50;;;;;;5032013;28;20405;-61
2023/12/03 03:31:39;;;;;;;16.73;10.23;;;-0.50;69.50;;;;;;5027385;28;20036;-61
2023/12/03 03:34:05;;;;;;;14.80;9.75;;;-0.30;69.70;;;;;;5029031;28;20025;-61
2023/12/03 03:36:31;;;;;;;17.00;11.43;;;-0.50;69.60;;;;;;5028082;28;20025;-62
2023/12/03 03:38:56;;;;;;;18.00;9.95;;;-0.50;69.70;;;;;;5027020;28;20036;-61
2023/12/03 03:41:22;;;;;;;17.80;10.68;;;-0.40;69.90;;;;;;5027067;28;20034;-62
2023/12/03 03:43:48;;;;;;;15.50;9.30;;;-0.50;69.90;;;;;;5027746;28;20128;-61
2023/12/03 03:46:14;;;;;;;16.55;10.93;;;-0.50;69.90;;;;;;5026427;28;20389;-62
2023/12/03 03:48:39;;;;;;;16.60;9.68;;;-0.50;69.90;;;;;;5027068;28;20034;-60
2023/12/03 03:51:06;;;;;;;18.23;10.75;;;-0.50;69.90;;;;;;5027139;28;20037;-61
2023/12/03 03:53:32;;;;;;;18.48;9.88;;;-0.50;69.80;;;;;;5025755;28;20376;-62
2023/12/03 03:55:57;;;;;;;16.38;10.38;;;-0.50;70.00;;;;;;5023458;28;20385;-61
2023/12/03 03:58:23;;;;;;;16.50;9.95;;;-0.50;69.90;;;;;;5026657;28;20021;-61
2023/12/03 04:00:49;;;;;;;15.35;9.63;;;-0.50;69.90;;;;;;5026100;28;20022;-63
2023/12/03 04:03:15;;;;;;;17.08;10.23;;;-0.50;70.00;;;;;;5031100;28;20029;-62
2023/12/03 04:05:42;;;;;;;17.25;10.07;;;-0.50;70.00;;;;;;5026513;28;20035;-61
2023/12/03 04:08:07;;;;;;;21.88;11.20;;;-0.50;70.10;;;;;;5027027;28;20053;-61
2023/12/03 04:10:33;;;;;;;17.50;10.32;;;-0.50;70.10;;;;;;5025532;28;20057;-61
2023/12/03 04:12:58;;;;;;;17.63;10.13;;;-0.50;70.10;;;;;;5028055;28;20075;-62
2023/12/03 04:15:24;;;;;;;16.15;10.32;;;-0.50;70.10;;;;;;5025713;28;20021;-61
2023/12/03 04:17:50;;;;;;;17.02;10.43;;;-0.50;70.00;;;;;;5026770;28;20226;-62
2023/12/03 04:20:15;;;;;;;17.83;10.25;;;-0.40;70.00;;;;;;5026740;28;20530;-61
2023/12/03 04:22:41;;;;;;;20.83;11.10;;;-0.20;70.10;;;;;;5026632;28;20065;-61
2023/12/03 04:25:07;;;;;;;17.25;10.70;;;-0.40;70.00;;;;;;5024489;28;20029;-60
2023/12/03 04:27:33;;;;;;;15.90;10.43;;;-0.40;70.00;;;;;;5026187;28;20049;-61
2023/12/03 04:29:59;;;;;;;21.58;10.98;;;-0.40;69.90;;;;;;5027142;28;20099;-61
2023/12/03 04:32:24;;;;;;;20.60;10.93;;;-0.40;69.90;;;;;;5025819;28;20511;-60
2023/12/03 04:34:50;;;;;;;17.02;10.45;;;-0.40;69.80;;;;;;5025027;28;20053;-61
2023/12/03 04:37:16;;;;;;;18.58;11.05;;;-0.30;69.80;;;;;;5026165;28;20034;-61
2023/12/03 04:39:43;;;;;;;19.83;11.00;;;-0.30;69.80;;;;;;5025368;28;20075;-61
2023/12/03 04:42:08;;;;;;;20.50;11.55;;;-0.30;69.80;;;;;;5025710;28;20057;-61
2023/12/03 04:44:34;;;;;;;19.17;11.60;;;-0.20;69.90;;;;;;5026969;28;20026;-61
2023/12/03 04:47:00;;;;;;;17.10;10.73;;;-0.30;69.80;;;;;;4966068;28;20025;-61
2023/12/03 04:49:26;;;;;;;17.63;10.43;;;-0.30;69.90;;;;;;5025997;28;20053;-62
2023/12/03 04:51:52;;;;;;;18.55;11.02;;;-0.30;69.80;;;;;;5026286;28;20387;-61
2023/12/03 04:54:17;;;;;;;20.33;10.93;;;-0.30;69.80;;;;;;5020807;28;20025;-61
2023/12/03 04:56:43;;;;;;;17.05;10.45;;;-0.30;69.80;;;;;;5025350;28;20026;-61
2023/12/03 04:59:09;;;;;;;17.15;10.20;;;-0.30;69.80;;;;;;5024995;28;20488;-61
2023/12/03 05:01:35;;;;;;;17.20;10.82;;;-0.30;69.80;;;;;;5023199;28;20025;-63
2023/12/03 05:04:00;;;;;;;18.67;10.13;;;-0.30;69.70;;;;;;5026255;28;20119;-61
2023/12/03 05:06:26;;;;;;;17.70;10.23;;;-0.20;69.60;;;;;;5027944;28;20057;-63
2023/12/03 05:08:52;;;;;;;15.35;9.98;;;-0.10;69.70;;;;;;5021352;28;20044;-61
2023/12/03 05:11:17;;;;;;;17.00;10.48;;;-0.30;69.50;;;;;;5025682;28;20520;-62
2023/12/03 05:13:43;;;;;;;16.30;10.65;;;-0.40;69.50;;;;;;5026962;28;20714;-62
2023/12/03 05:16:09;;;;;;;16.38;10.52;;;-0.40;69.50;;;;;;5022747;28;20022;-61
2023/12/03 05:18:35;;;;;;;15.20;9.82;;;-0.40;69.50;;;;;;5026955;28;20021;-61
2023/12/03 05:21:02;;;;;;;18.80;9.70;;;-0.40;69.50;;;;;;5025944;28;20358;-61
2023/12/03 05:23:28;;;;;;;20.10;10.77;;;-0.20;69.70;;;;;;5024847;28;20037;-62
2023/12/03 05:25:54;;;;;;;19.38;10.15;;;-0.40;69.70;;;;;;5022468;28;20036;-61
2023/12/03 05:28:20;;;;;;;16.15;9.93;;;-0.30;69.80;;;;;;5025208;28;20045;-61
2023/12/03 05:30:46;;;;;;;16.73;9.95;;;-0.40;69.70;;;;;;5025507;28;20025;-61
2023/12/03 05:33:12;;;;;;;15.77;9.57;;;-0.30;69.80;;;;;;5026185;28;20053;-61
2023/12/03 05:35:37;;;;;;;18.58;9.93;;;-0.40;69.70;;;;;;5024252;28;20570;-61
2023/12/03 05:38:04;;;;;;;15.75;10.57;;;-0.30;69.80;;;;;;5027019;28;20068;-61
2023/12/03 05:40:29;;;;;;;14.57;9.68;;;-0.30;69.90;;;;;;5031956;28;20057;-61
2023/12/03 05:42:55;;;;;;;15.88;9.60;;;-0.30;69.90;;;;;;5031376;28;20378;-61
2023/12/03 05:45:20;;;;;;;13.45;9.00;;;-0.10;70.10;;;;;;5030995;28;20077;-62
2023/12/03 05:47:46;;;;;;;13.75;8.25;;;-0.30;69.90;;;;;;4959393;28;20034;-61
2023/12/03 05:50:12;;;;;;;13.35;8.20;;;-0.30;69.80;;;;;;5025557;28;20029;-62
2023/12/03 05:52:38;;;;;;;13.02;8.80;;;-0.10;69.70;;;;;;5023717;28;20029;-61
2023/12/03 05:55:04;;;;;;;13.38;7.68;;;-0.30;69.50;;;;;;5024494;28;20362;-61
2023/12/03 05:57:30;;;;;;;14.27;8.68;;;-0.30;69.40;;;;;;5036287;28;20099;-62
2023/12/03 05:59:56;;;;;;;12.10;7.90;;;-0.30;69.40;;;;;;5025136;28;20416;-61
2023/12/03 06:02:21;;;;;;;12.65;8.23;;;-0.30;69.40;;;;;;5026343;28;20067;-61
2023/12/03 06:04:47;;;;;;;14.23;8.15;;;-0.30;69.40;;;;;;5024569;28;20040;-61
2023/12/03 06:07:13;;;;;;;15.23;7.65;;;-0.30;69.30;;;;;;5024214;28;20017;-62
2023/12/03 06:09:40;;;;;;;11.45;7.13;;;-0.30;69.20;;;;;;5024535;28;20356;-61
2023/12/03 06:12:06;;;;;;;13.60;7.57;;;-0.30;69.20;;;;;;5025074;28;20044;-61
2023/12/03 06:14:31;;;;;;;12.18;7.50;;;-0.30;69.10;;;;;;5025289;28;20029;-61
2023/12/03 06:16:57;;;;;;;12.05;7.43;;;-0.30;69.10;;;;;;5025159;28;20186;-60
2023/12/03 06:19:23;;;;;;;12.07;8.07;;;-0.40;68.90;;;;;;5024586;28;20025;-61
2023/12/03 06:21:48;;;;;;;13.52;8.07;;;-0.40;68.80;;;;;;5022608;28;20052;-62
2023/12/03 06:24:14;;;;;;;13.07;7.68;;;-0.40;68.70;;;;;;5025442;28;20543;-61
2023/12/03 06:26:40;;;;;;;13.30;7.55;;;-0.30;68.70;;;;;;5025202;28;20025;-61
2023/12/03 06:29:05;;;;;;;13.43;7.53;;;-0.30;68.70;;;;;;5025051;28;20045;-61
2023/12/03 06:31:32;;;;;;;9.88;6.65;;;-0.60;68.50;;;;;;5024417;28;20032;-61
2023/12/03 06:33:58;;;;;;;11.65;7.22;;;-0.60;68.50;;;;;;5025576;28;20714;-61
2023/12/03 06:36:25;;;;;;;13.60;8.15;;;-0.70;68.30;;;;;;5023502;28;20037;-61
2023/12/03 06:38:51;;;;;;;14.98;7.30;;;-0.70;68.00;;;;;;5024829;28;20083;-61
2023/12/03 06:41:17;;;;;;;12.27;7.07;;;-0.80;67.90;;;;;;5024392;28;20033;-61
2023/12/03 06:43:43;;;;;;;10.38;7.07;;;-0.90;67.80;;;;;;5025082;28;20029;-62
2023/12/03 06:46:08;;;;;;;10.70;6.75;;;-1.10;67.60;;;;;;4962479;28;20064;-61
2023/12/03 06:48:34;;;;;;;11.00;6.95;;;-1.10;67.80;;;;;;5025515;28;20369;-61
2023/12/03 06:50:59;;;;;;;10.13;6.68;;;-1.30;67.80;;;;;;5019610;28;20087;-61
2023/12/03 06:53:25;;;;;;;9.73;6.10;;;-1.40;67.90;;;;;;5023877;28;20049;-62
2023/12/03 06:55:51;;;;;;;10.52;6.60;;;-1.50;68.00;;;;;;5023293;28;20029;-62
2023/12/03 06:58:16;;;;;;;8.38;6.00;;;-1.50;68.20;;;;;;5024581;28;20061;-62
2023/12/03 07:00:43;;;;;;;8.45;5.90;;;-1.60;68.40;;;;;;5024516;28;20041;-62
2023/12/03 07:03:09;;;;;;;10.70;7.05;;;-1.70;68.50;;;;;;5025599;28;20107;-62
2023/12/03 07:05:35;;;;;;;11.00;6.35;;;-1.70;68.60;;;;;;5036917;28;20033;-61
2023/12/03 07:08:00;;;;;;;13.80;7.45;;;-1.80;68.70;;;;;;5024284;28;20083;-62
2023/12/03 07:10:26;;;;;;;10.77;7.07;;;-1.90;68.80;;;;;;5024268;28;20017;-63
2023/12/03 07:12:51;;;;;;;19.55;6.88;;;-1.90;69.00;;;;;;5024102;28;20097;-63
2023/12/03 07:15:18;;;;;;;10.75;6.63;;;-1.90;69.10;;;;;;5024961;28;20034;-64
2023/12/03 07:17:43;;;;;;;10.77;6.30;;;-2.00;69.10;;;;;;5026328;28;20025;-63
2023/12/03 07:20:09;;;;;;;12.98;6.82;;;-2.00;69.00;;;;;;5027441;28;20025;-62
2023/12/03 07:22:35;;;;;;;13.63;7.57;;;-2.00;69.10;;;;;;5027943;28;20046;-62
2023/12/03 07:25:02;;;;;;;10.82;6.97;;;-2.00;69.00;;;;;;5028250;28;20040;-64
2023/12/03 07:27:28;;;;;;;13.02;7.57;;;-2.00;68.90;;;;;;5025543;28;20026;-64
2023/12/03 07:29:57;;;;;;;13.38;7.68;;;-2.10;68.80;;;;;;5027871;28;20041;-63
2023/12/03 07:32:23;;;;;;;12.60;7.50;;;-2.10;68.70;;;;;;5027101;28;20100;-63
2023/12/03 07:34:49;;;;;;;11.32;7.10;;;-2.10;68.70;;;;;;5042158;28;20032;-63
2023/12/03 07:37:16;;;;;;;13.05;6.88;;;-2.10;68.70;;;;;;5028138;28;20026;-63
2023/12/03 07:39:42;;;;;;;12.52;7.88;;;-2.10;68.60;;;;;;5027495;28;20032;-64
2023/12/03 07:42:07;;;;;;;15.80;8.25;;;-2.10;68.60;;;;;;5027919;28;20038;-64
2023/12/03 07:44:33;;;;;;;14.63;8.18;;;-2.00;68.60;;;;;;5026758;28;20063;-64
2023/12/03 07:46:59;;;;;;;11.10;7.22;;;-2.10;68.60;;;;;;4973159;28;20167;-64
2023/12/03 07:49:24;;;;;;;13.52;7.78;;;-2.00;68.90;;;;;;5027197;28;20029;-64
2023/12/03 07:51:50;;;;;;;15.23;8.75;;;-1.80;68.90;;;;;;5025540;28;20817;-64
2023/12/03 07:54:17;;;;;;;13.40;7.70;;;-2.00;68.70;;;;;;5028198;28;20394;-64
2023/12/03 07:56:42;;;;;;;55.28;16.30;;;-1.90;68.80;;;;;;5027415;28;20064;-64
2023/12/03 07:59:08;;;;;;;47.38;14.07;;;-1.90;68.90;;;;;;5026568;28;20088;-63
2023/12/03 08:01:35;;;;;;;47.78;15.93;;;-1.90;69.00;;;;;;5027210;28;20029;-64
2023/12/03 08:04:00;;;;;;;102.30;37.17;;;-1.80;69.20;;;;;;5034687;28;20033;-65
2023/12/03 08:06:26;;;;;;;307.42;111.07;;;-1.80;69.10;;;;;;5032610;28;20199;-64
2023/12/03 08:08:53;;;;;;;99.90;41.45;;;-1.70;69.00;;;;;;5029768;28;20025;-64
2023/12/03 08:11:19;;;;;;;65.72;28.83;;;-1.40;69.00;;;;;;5027186;28;20022;-64
2023/12/03 08:13:46;;;;;;;42.13;19.45;;;-1.60;68.70;;;;;;5027019;28;20067;-64
2023/12/03 08:16:12;;;;;;;23.52;12.88;;;-1.50;68.70;;;;;;5025997;28;20812;-64
2023/12/03 08:18:38;;;;;;;36.63;17.77;;;-1.50;68.60;;;;;;5026778;28;20030;-62
2023/12/03 08:21:04;;;;;;;31.77;17.23;;;-1.40;68.70;;;;;;5026244;28;20480;-64
2023/12/03 08:23:31;;;;;;;22.77;14.35;;;-1.40;68.70;;;;;;5027062;28;20079;-65
2023/12/03 08:25:56;;;;;;;20.02;10.73;;;-1.30;68.70;;;;;;5028018;28;20176;-64
2023/12/03 08:28:23;;;;;;;32.60;16.75;;;-1.20;68.70;;;;;;5026022;28;20522;-64
2023/12/03 08:30:48;;;;;;;28.77;16.73;;;-1.10;68.70;;;;;;5024277;28;20175;-62
2023/12/03 08:33:14;;;;;;;92.38;37.00;;;-1.00;68.60;;;;;;5028751;28;20115;-64
2023/12/03 08:35:41;;;;;;;34.00;16.80;;;-0.90;68.60;;;;;;5027039;28;20053;-64
2023/12/03 08:38:07;;;;;;;26.40;12.88;;;-0.80;68.50;;;;;;5025911;28;20029;-63
2023/12/03 08:40:33;;;;;;;24.02;14.02;;;-0.70;68.40;;;;;;5031649;28;20045;-62
2023/12/03 08:42:59;;;;;;;18.60;11.07;;;-0.60;68.30;;;;;;5025133;28;20056;-64
2023/12/03 08:45:34;;;;;;;19.15;9.95;;;-0.50;68.20;;;;;;5025820;28;20034;-64
2023/12/03 08:48:03;;;;;;;18.30;11.32;;;-0.30;68.10;;;;;;5025036;28;20546;-64
2023/12/03 08:50:31;;;;;;;19.17;10.65;;;-0.30;68.00;;;;;;5019686;28;20044;-64
2023/12/03 08:52:58;;;;;;;17.58;10.65;;;-0.10;68.00;;;;;;5023613;28;20201;-62
2023/12/03 08:55:23;;;;;;;16.63;9.10;;;0.00;67.90;;;;;;5021797;28;20118;-63
2023/12/03 08:57:49;;;;;;;12.85;8.20;;;0.10;67.70;;;;;;5022513;28;20467;-63
2023/12/03 09:00:16;;;;;;;15.55;9.82;;;0.20;67.60;;;;;;5023145;28;20076;-63
2023/12/03 09:02:46;;;;;;;17.50;9.50;;;0.30;67.50;;;;;;5039070;28;20040;-63
2023/12/03 09:05:12;;;;;;;15.88;9.00;;;0.40;67.30;;;;;;5026149;28;20061;-64
2023/12/03 09:07:37;;;;;;;16.05;8.93;;;0.70;67.50;;;;;;5027192;28;20057;-63
2023/12/03 09:10:04;;;;;;;14.13;7.85;;;0.60;67.40;;;;;;5026653;28;20040;-64
2023/12/03 09:12:30;;;;;;;17.02;9.55;;;0.70;67.20;;;;;;5007598;28;20083;-64
2023/12/03 09:14:56;;;;;;;14.35;8.77;;;1.00;67.30;;;;;;5025974;28;20730;-63
2023/12/03 09:17:21;;;;;;;13.82;8.55;;;0.90;67.10;;;;;;5025620;28;20073;-63
2023/12/03 09:19:47;;;;;;;13.57;8.73;;;1.10;67.00;;;;;;5039542;28;20113;-63
2023/12/03 09:22:13;;;;;;;12.70;8.25;;;1.20;67.00;;;;;;5024528;28;20033;-63
2023/12/03 09:24:38;;;;;;;17.63;10.55;;;1.30;66.80;;;;;;5024811;28;20017;-64
2023/12/03 09:27:04;;;;;;;20.75;11.52;;;1.40;66.70;;;;;;5025540;28;20059;-64
2023/12/03 09:29:30;;;;;;;18.20;10.93;;;1.50;66.50;;;;;;5025050;28;20118;-64
2023/12/03 09:31:56;;;;;;;16.77;10.45;;;1.70;66.40;;;;;;5024379;28;20118;-64
2023/12/03 09:34:21;;;;;;;14.13;9.27;;;1.90;66.40;;;;;;5026357;28;20029;-64
2023/12/03 09:36:47;;;;;;;14.27;9.80;;;1.90;66.20;;;;;;5026292;28;20346;-63
2023/12/03 09:39:12;;;;;;;18.77;11.75;;;2.00;66.10;;;;;;5022572;28;20049;-63
2023/12/03 09:41:49;;;;;;;14.35;9.52;;;2.10;66.00;;;;;;5024573;28;20430;-63
2023/12/03 09:44:39;;;;;;;15.60;9.68;;;2.20;65.70;;;;;;5019856;28;20037;-63
2023/12/03 09:47:07;;;;;;;15.20;10.13;;;2.40;64.90;;;;;;4930397;28;20048;-63
2023/12/03 09:49:36;;;;;;;17.75;9.43;;;2.50;65.50;;;;;;5024650;28;20027;-63
2023/12/03 09:52:03;;;;;;;14.93;9.20;;;2.60;65.20;;;;;;5023268;28;20054;-63
2023/12/03 09:54:31;;;;;;;13.95;9.00;;;2.70;65.00;;;;;;5025637;28;20033;-63
2023/12/03 09:56:59;;;;;;;15.77;10.32;;;2.70;64.90;;;;;;5023098;28;20025;-63
2023/12/03 09:59:26;;;;;;;12.98;8.73;;;3.10;64.50;;;;;;5025731;28;20396;-64
2023/12/03 10:01:55;;;;;;;14.65;9.32;;;2.90;64.30;;;;;;5024665;28;20097;-64
2023/12/03 10:04:21;;;;;;;15.18;9.52;;;2.90;64.30;;;;;;5025596;28;20809;-63
2023/12/03 10:06:50;;;;;;;16.55;10.63;;;3.20;64.30;;;;;;5023826;28;20087;-64
2023/12/03 10:09:17;;;;;;;14.95;9.30;;;3.10;64.00;;;;;;5022455;28;20107;-63
2023/12/03 10:11:52;;;;;;;16.05;9.48;;;3.20;64.10;;;;;;5024706;28;20021;-63
2023/12/03 10:14:18;;;;;;;15.02;9.38;;;3.20;63.80;;;;;;5024861;28;20033;-65
2023/12/03 10:16:52;;;;;;;15.80;9.90;;;3.40;63.90;;;;;;5025768;28;20056;-63
2023/12/03 10:19:27;;;;;;;18.50;10.70;;;3.40;63.40;;;;;;5027873;28;20067;-64
2023/12/03 10:21:55;;;;;;;17.45;9.60;;;3.50;62.90;;;;;;5021357;28;20057;-63
2023/12/03 10:24:21;;;;;;;14.45;8.95;;;3.50;63.40;;;;;;5024372;28;20154;-63
2023/12/03 10:26:54;;;;;;;14.00;8.80;;;3.60;63.30;;;;;;5023747;28;20037;-64
2023/12/03 10:29:20;;;;;;;14.13;8.95;;;3.60;62.80;;;;;;5022964;28;20041;-63
2023/12/03 10:31:50;;;;;;;14.20;8.95;;;3.70;63.00;;;;;;5024678;28;20017;-65
2023/12/03 10:34:20;;;;;;;12.00;8.43;;;3.80;62.70;;;;;;5039677;28;20068;-65
2023/12/03 10:36:47;;;;;;;18.52;8.88;;;3.80;62.80;;;;;;5022460;28;20036;-65
2023/12/03 10:39:17;;;;;;;13.95;9.43;;;3.90;62.70;;;;;;5024033;28;20368;-65
2023/12/03 10:41:47;;;;;;;12.88;8.68;;;4.00;62.30;;;;;;5037556;28;20064;-63
2023/12/03 10:44:21;;;;;;;12.13;8.88;;;3.90;62.00;;;;;;5024000;28;20099;-65
2023/12/03 10:46:47;;;;;;;13.90;9.32;;;4.00;61.70;;;;;;4936148;28;20346;-63
2023/12/03 10:49:15;;;;;;;14.57;8.98;;;4.00;61.90;;;;;;5026065;28;20083;-64
2023/12/03 10:51:46;;;;;;;13.20;8.95;;;4.00;61.90;;;;;;5021582;28;20041;-64
2023/12/03 10:54:12;;;;;;;14.77;9.73;;;4.00;62.00;;;;;;5026848;28;20041;-64
2023/12/03 10:56:40;;;;;;;16.08;10.15;;;4.10;62.00;;;;;;5028289;28;20025;-64
2023/12/03 10:59:11;;;;;;;15.68;10.00;;;4.20;61.90;;;;;;5027271;28;20037;-64
2023/12/03 11:01:40;;;;;;;15.63;10.00;;;4.30;61.90;;;;;;5027889;28;20531;-63
2023/12/03 11:04:34;;;;;;;18.95;10.73;;;4.30;62.00;;;;;;5027809;28;20038;-64
2023/12/03 11:07:03;;;;;;;16.17;9.73;;;4.40;61.00;;;;;;5027929;28;20025;-63
2023/12/03 11:09:29;;;;;;;14.85;9.75;;;4.50;62.00;;;;;;5028381;28;20029;-64
2023/12/03 11:11:55;;;;;;;15.73;9.40;;;4.60;61.70;;;;;;5027938;28;20025;-64
2023/12/03 11:14:22;;;;;;;15.13;9.90;;;4.70;61.70;;;;;;5028357;28;20025;-64
2023/12/03 11:17:17;;;;;;;13.50;8.98;;;4.80;61.60;;;;;;5027427;28;20024;-63
2023/12/03 11:19:48;;;;;;;12.52;9.23;;;4.90;60.30;;;;;;5026819;28;20037;-63
2023/12/03 11:22:32;;;;;;;15.90;9.93;;;4.90;61.00;;;;;;5026406;28;20065;-64
2023/12/03 11:25:12;;;;;;;16.87;11.03;;;4.90;61.40;;;;;;5024446;28;20041;-63
2023/12/03 11:27:42;;;;;;;16.55;9.95;;;4.90;60.40;;;;;;5027967;28;20496;-63
2023/12/03 11:30:08;;;;;;;14.73;9.93;;;4.90;60.80;;;;;;5027336;28;20564;-64
2023/12/03 11:32:35;;;;;;;15.30;9.82;;;4.80;61.10;;;;;;5027704;28;20045;-64
2023/12/03 11:35:04;;;;;;;14.40;9.77;;;4.80;60.90;;;;;;5028296;28;20045;-63
2023/12/03 11:37:30;;;;;;;14.93;10.05;;;4.80;60.60;;;;;;5026070;28;20071;-65
2023/12/03 11:40:09;;;;;;;14.85;10.13;;;4.80;60.90;;;;;;5027815;28;20018;-64
2023/12/03 11:42:50;;;;;;;15.23;10.20;;;4.90;60.60;;;;;;5027466;28;20033;-63
2023/12/03 11:45:27;;;;;;;14.80;9.82;;;4.90;59.70;;;;;;4953093;28;20049;-63
2023/12/03 11:48:11;;;;;;;19.88;12.43;;;4.90;60.20;;;;;;5027304;28;20411;-64
2023/12/03 11:50:39;;;;;;;9.63;6.78;;;5.00;60.10;;;;;;5022440;28;20380;-63
2023/12/03 11:53:06;;;;;;;16.17;10.38;;;5.10;60.80;;;;;;5027489;28;20048;-64
2023/12/03 11:55:34;;;;;;;18.92;11.60;;;5.20;60.70;;;;;;5027558;28;20025;-63
2023/12/03 11:58:02;;;;;;;16.75;10.95;;;5.50;60.50;;;;;;5027662;28;20026;-64
2023/12/03 12:00:28;;;;;;;14.90;9.88;;;5.40;60.30;;;;;;5026054;28;20040;-64
2023/12/03 12:02:54;;;;;;;14.57;9.65;;;5.50;60.30;;;;;;5027005;28;20037;-64
2023/12/03 12:05:20;;;;;;;13.05;8.80;;;5.60;60.30;;;;;;5029518;28;20060;-63
2023/12/03 12:08:04;;;;;;;12.98;8.50;;;5.60;59.90;;;;;;5030405;28;20104;-64
2023/12/03 12:10:34;;;;;;;14.32;8.95;;;5.70;58.70;;;;;;5031056;28;20087;-63
2023/12/03 12:13:01;;;;;;;11.93;8.60;;;5.80;59.60;;;;;;5028231;28;20045;-65
2023/12/03 12:15:27;;;;;;;15.45;9.85;;;5.90;59.70;;;;;;5025246;28;20037;-64
2023/12/03 12:17:53;;;;;;;11.77;8.45;;;6.00;59.70;;;;;;5026144;28;20024;-64
2023/12/03 12:20:26;;;;;;;12.70;8.68;;;6.10;59.50;;;;;;5024292;28;20034;-64
2023/12/03 12:22:52;;;;;;;13.20;9.38;;;6.20;58.90;;;;;;5023754;28;20526;-64
2023/12/03 12:25:19;;;;;;;12.05;8.40;;;6.20;59.00;;;;;;5027492;28;20030;-64
2023/12/03 12:27:46;;;;;;;11.95;8.05;;;6.30;58.90;;;;;;5030339;28;20041;-63
2023/12/03 12:30:17;;;;;;;638.97;293.92;;;6.30;58.90;;;;;;5042825;28;20042;-63
2023/12/03 12:32:42;;;;;;;383.77;163.98;;;6.40;58.00;;;;;;5028528;28;20037;-64
2023/12/03 12:35:09;;;;;;;94.57;50.25;;;6.40;58.60;;;;;;5026474;28;20022;-63
2023/12/03 12:37:35;;;;;;;194.10;89.53;;;6.40;58.50;;;;;;5026045;28;20030;-63